Time;durP1;ratioP1;P1;durP2;ratioP2;P2;SDS_P1;SDS_P2;PMS_P1;PMS_P2;Temp;Humidity;BMP_temperature;BMP_pressure;BME280_temperature;BME280_humidity;BME280_pressure;Samples;Min_cycle;Max_cycle;Signal;HPM_P1;HPM_P2
2022/09/04 00:00:12;;;;;;;3.22;1.00;;;13.80;99.90;;;;;;5014827;28;20386;-74
2022/09/04 00:03:06;;;;;;;5.70;1.20;;;14.10;99.90;;;;;;5012100;28;20368;-74
2022/09/04 00:05:41;;;;;;;5.07;1.25;;;14.10;99.90;;;;;;5011633;28;20387;-74
2022/09/04 00:08:33;;;;;;;5.03;1.20;;;14.10;99.90;;;;;;5011186;28;20378;-74
2022/09/04 00:11:30;;;;;;;6.00;1.20;;;14.00;99.90;;;;;;5011628;28;20379;-74
2022/09/04 00:14:01;;;;;;;5.72;1.20;;;13.90;99.90;;;;;;5010983;28;20936;-75
2022/09/04 00:16:49;;;;;;;6.10;1.40;;;13.80;99.90;;;;;;5010866;28;20407;-74
2022/09/04 00:19:22;;;;;;;7.13;1.30;;;14.00;99.90;;;;;;5052495;28;20403;-75
2022/09/04 00:22:25;;;;;;;4.45;1.10;;;14.20;99.90;;;;;;5053209;28;20383;-74
2022/09/04 00:25:02;;;;;;;5.22;1.20;;;14.40;99.90;;;;;;5070314;28;20473;-74
2022/09/04 00:27:42;;;;;;;5.65;1.20;;;14.60;99.90;;;;;;5070948;28;20378;-74
2022/09/04 00:30:21;;;;;;;5.10;1.10;;;14.80;99.90;;;;;;5070080;28;20374;-74
2022/09/04 00:32:57;;;;;;;4.78;1.30;;;14.90;99.90;;;;;;5064155;28;20478;-75
2022/09/04 00:35:31;;;;;;;7.15;1.13;;;15.00;99.90;;;;;;5050182;28;20482;-74
2022/09/04 00:38:13;;;;;;;4.13;1.00;;;15.30;99.90;;;;;;5050150;28;20494;-74
2022/09/04 00:41:04;;;;;;;4.13;1.03;;;15.30;99.90;;;;;;5050065;28;20378;-74
2022/09/04 00:43:55;;;;;;;5.03;1.17;;;15.20;99.90;;;;;;5050237;28;20387;-75
2022/09/04 00:46:36;;;;;;;5.60;1.00;;;15.20;99.90;;;;;;5049934;28;20860;-74
2022/09/04 00:49:03;;;;;;;6.15;1.05;;;15.00;99.90;;;;;;5050666;28;20372;-74
2022/09/04 00:52:01;;;;;;;7.30;1.30;;;14.80;99.90;;;;;;5050371;28;20490;-74
2022/09/04 00:54:28;;;;;;;6.57;1.20;;;14.60;99.90;;;;;;5050220;28;20385;-75
2022/09/04 00:57:13;;;;;;;6.18;1.40;;;14.40;99.90;;;;;;5049691;28;20506;-74
2022/09/04 00:59:52;;;;;;;5.32;1.33;;;14.40;99.90;;;;;;5050410;28;20391;-75
2022/09/04 01:02:40;;;;;;;5.72;1.20;;;14.30;99.90;;;;;;5038889;28;20377;-75
2022/09/04 01:05:44;;;;;;;7.28;1.20;;;14.30;99.90;;;;;;5032616;28;20385;-76
2022/09/04 01:08:20;;;;;;;4.95;1.40;;;14.10;99.90;;;;;;5032981;28;20566;-75
2022/09/04 01:11:24;;;;;;;6.80;1.50;;;13.80;99.90;;;;;;5064224;28;20396;-77
2022/09/04 01:13:51;;;;;;;6.13;1.48;;;13.40;99.90;;;;;;5033129;28;20457;-76
2022/09/04 01:16:26;;;;;;;8.07;1.58;;;13.30;99.90;;;;;;5036194;28;20400;-75
2022/09/04 01:19:17;;;;;;;5.63;1.60;;;13.40;99.90;;;;;;5036081;28;20382;-75
2022/09/04 01:21:47;;;;;;;6.55;1.70;;;13.40;99.90;;;;;;5035714;28;20740;-76
2022/09/04 01:24:38;;;;;;;6.47;1.70;;;13.50;99.90;;;;;;5035965;28;20385;-75
2022/09/04 01:27:18;;;;;;;5.75;1.70;;;13.60;99.90;;;;;;5035970;28;20439;-74
2022/09/04 01:30:04;;;;;;;7.80;1.52;;;13.80;99.90;;;;;;5067783;28;20389;-75
2022/09/04 01:32:53;;;;;;;4.72;1.50;;;14.60;99.90;;;;;;5042098;28;20408;-76
2022/09/04 01:35:41;;;;;;;5.05;1.48;;;16.10;99.90;;;;;;5075134;28;20421;-75
2022/09/04 01:38:29;;;;;;;4.82;1.40;;;17.00;99.90;;;;;;5075552;28;20401;-75
2022/09/04 01:41:27;;;;;;;5.77;1.30;;;16.80;99.90;;;;;;5075107;28;20382;-74
2022/09/04 01:43:54;;;;;;;4.53;1.20;;;16.40;99.90;;;;;;5013405;28;20417;-74
2022/09/04 01:46:37;;;;;;;3.72;1.10;;;16.20;99.90;;;;;;5013378;28;20379;-75
2022/09/04 01:49:12;;;;;;;5.17;1.30;;;16.10;99.90;;;;;;5013242;28;20423;-75
2022/09/04 01:52:21;;;;;;;5.00;1.25;;;15.80;99.90;;;;;;5012985;28;20375;-75
2022/09/04 01:55:08;;;;;;;4.80;1.30;;;15.70;99.90;;;;;;4993823;28;20372;-76
2022/09/04 01:57:53;;;;;;;5.32;1.13;;;16.10;99.90;;;;;;4993938;28;20440;-75
2022/09/04 02:00:22;;;;;;;3.83;1.10;;;17.10;99.90;;;;;;4993491;28;20856;-76
2022/09/04 02:03:09;;;;;;;3.27;1.03;;;17.70;99.90;;;;;;4993524;28;20396;-76
2022/09/04 02:06:12;;;;;;;4.28;1.00;;;18.40;99.90;;;;;;5009475;28;20385;-74
2022/09/04 02:09:10;;;;;;;6.07;1.15;;;17.60;99.90;;;;;;4994016;28;20444;-74
2022/09/04 02:11:47;;;;;;;4.75;1.13;;;16.00;99.90;;;;;;4993195;28;20444;-73
2022/09/04 02:14:21;;;;;;;5.83;1.20;;;15.20;99.90;;;;;;4993180;28;20385;-74
2022/09/04 02:17:09;;;;;;;5.38;1.10;;;14.80;99.90;;;;;;4993587;28;20392;-75
2022/09/04 02:19:57;;;;;;;3.28;0.90;;;14.90;99.90;;;;;;4993044;28;20873;-75
2022/09/04 02:22:43;;;;;;;2.40;0.88;;;15.30;99.90;;;;;;5052806;28;20379;-74
2022/09/04 02:25:41;;;;;;;4.60;1.08;;;15.60;99.90;;;;;;5050975;28;20887;-74
2022/09/04 02:28:13;;;;;;;4.85;1.30;;;15.80;99.90;;;;;;5051961;28;20418;-75
2022/09/04 02:31:10;;;;;;;3.97;1.20;;;16.10;99.90;;;;;;5055216;28;20449;-75
2022/09/04 02:33:44;;;;;;;4.20;1.30;;;16.50;99.90;;;;;;5073872;28;20478;-77
2022/09/04 02:36:30;;;;;;;4.50;1.13;;;16.90;99.90;;;;;;5074152;28;20370;-77
2022/09/04 02:39:52;;;;;;;4.90;1.30;;;17.10;99.90;;;;;;5073891;28;20866;-74
2022/09/04 02:42:54;;;;;;;4.75;1.10;;;17.90;99.90;;;;;;5012308;28;20499;-75
2022/09/04 02:45:41;;;;;;;4.00;1.17;;;18.80;99.90;;;;;;4992568;28;20440;-75
2022/09/04 02:48:44;;;;;;;5.47;1.30;;;18.70;99.90;;;;;;4992470;28;20381;-75
2022/09/04 02:51:26;;;;;;;6.57;1.37;;;18.70;99.90;;;;;;4972986;28;20394;-75
2022/09/04 02:54:23;;;;;;;6.60;1.30;;;18.70;99.90;;;;;;4973447;28;20451;-75
2022/09/04 02:57:04;;;;;;;4.88;1.35;;;18.60;99.90;;;;;;4972765;28;20402;-75
2022/09/04 02:59:46;;;;;;;7.57;1.40;;;18.70;99.90;;;;;;4973402;28;20871;-75
2022/09/04 03:02:58;;;;;;;7.25;1.60;;;18.10;99.90;;;;;;4972932;28;20755;-75
2022/09/04 03:05:41;;;;;;;3.92;1.23;;;18.10;99.90;;;;;;4967556;28;20911;-75
2022/09/04 03:08:28;;;;;;;3.95;1.25;;;18.60;99.90;;;;;;4972738;28;20375;-74
2022/09/04 03:11:06;;;;;;;5.10;1.13;;;19.00;99.90;;;;;;4972520;28;20389;-74
2022/09/04 03:14:02;;;;;;;4.45;1.08;;;18.60;99.40;;;;;;5014060;28;20377;-75
2022/09/04 03:16:36;;;;;;;4.78;1.00;;;18.30;99.30;;;;;;5031283;28;20394;-75
2022/09/04 03:19:18;;;;;;;3.15;1.00;;;19.40;98.00;;;;;;5031844;28;20389;-76
2022/09/04 03:21:48;;;;;;;3.50;0.93;;;19.80;96.20;;;;;;5014255;28;20383;-75
2022/09/04 03:24:57;;;;;;;5.38;1.10;;;19.40;95.40;;;;;;5011348;28;20391;-75
2022/09/04 03:27:25;;;;;;;2.90;1.10;;;18.70;95.50;;;;;;4997168;28;20858;-75
2022/09/04 03:29:57;;;;;;;3.85;1.00;;;19.70;94.90;;;;;;5031643;28;20420;-75
2022/09/04 03:32:45;;;;;;;3.20;1.00;;;20.50;92.10;;;;;;5032858;28;20377;-74
2022/09/04 03:35:12;;;;;;;4.50;1.10;;;20.90;91.00;;;;;;5037238;28;20401;-80
2022/09/04 03:38:28;;;;;;;3.53;1.00;;;20.60;91.40;;;;;;5035658;28;20402;-79
2022/09/04 03:41:30;;;;;;;5.20;1.17;;;19.40;92.90;;;;;;4974943;28;20390;-77
2022/09/04 03:44:12;;;;;;;3.80;1.13;;;19.40;95.30;;;;;;4973319;28;20378;-77
2022/09/04 03:46:57;;;;;;;3.42;1.13;;;20.80;89.40;;;;;;4972982;28;20386;-77
2022/09/04 03:49:55;;;;;;;4.32;1.08;;;21.30;87.30;;;;;;4972336;28;20389;-82
2022/09/04 03:52:46;;;;;;;4.43;1.20;;;21.60;85.70;;;;;;4972649;28;20731;-84
2022/09/04 03:55:19;;;;;;;3.95;1.10;;;21.30;84.60;;;;;;4972544;28;20867;-82
2022/09/04 03:58:07;;;;;;;4.25;1.30;;;20.00;85.70;;;;;;4972789;28;20834;-78
2022/09/04 04:00:55;;;;;;;4.90;1.23;;;18.70;93.50;;;;;;4973104;28;20951;-79
2022/09/04 04:03:28;;;;;;;4.60;1.10;;;17.60;98.70;;;;;;4984634;28;20375;-77
2022/09/04 04:06:18;;;;;;;3.58;1.10;;;16.80;99.90;;;;;;5011696;28;20383;-82
2022/09/04 04:08:55;;;;;;;4.68;1.10;;;16.70;99.90;;;;;;5010720;28;20426;-75
2022/09/04 04:11:37;;;;;;;4.55;1.10;;;16.70;99.90;;;;;;5010840;28;20371;-74
2022/09/04 04:14:25;;;;;;;2.28;1.02;;;16.80;99.90;;;;;;5011297;28;20427;-75
2022/09/04 04:17:04;;;;;;;3.40;1.10;;;17.00;99.90;;;;;;5019669;28;20477;-76
2022/09/04 04:19:41;;;;;;;5.93;1.30;;;17.60;99.90;;;;;;5072720;28;20417;-75
2022/09/04 04:22:40;;;;;;;6.03;1.23;;;17.70;99.90;;;;;;5072156;28;20850;-80
2022/09/04 04:25:36;;;;;;;5.70;1.25;;;18.20;99.90;;;;;;5030280;28;20389;-78
2022/09/04 04:28:31;;;;;;;4.13;1.20;;;19.40;96.80;;;;;;5030565;28;20377;-77
2022/09/04 04:31:22;;;;;;;5.13;1.30;;;20.10;94.10;;;;;;5030865;28;20553;-77
2022/09/04 04:34:21;;;;;;;6.18;1.30;;;19.30;93.90;;;;;;5030260;28;20403;-76
2022/09/04 04:36:55;;;;;;;4.88;1.42;;;19.00;95.20;;;;;;4971280;28;20502;-78
2022/09/04 04:39:53;;;;;;;16.02;1.90;;;18.70;96.40;;;;;;4971392;28;20476;-79
2022/09/04 04:42:20;;;;;;;4.95;1.40;;;18.30;98.70;;;;;;4972049;28;20386;-79
2022/09/04 04:48:17;;;;;;;5.10;1.40;;;17.60;99.50;;;;;;4971554;28;20443;-81
2022/09/04 04:51:21;;;;;;;4.80;1.33;;;17.50;99.90;;;;;;4975969;28;20418;-76
2022/09/04 04:54:12;;;;;;;4.72;1.25;;;17.60;99.90;;;;;;4975411;28;20469;-78
2022/09/04 04:57:21;;;;;;;5.60;1.23;;;17.50;99.90;;;;;;4975592;28;20405;-78
2022/09/04 05:00:10;;;;;;;4.50;1.30;;;17.60;99.90;;;;;;4975217;28;20425;-76
2022/09/04 05:02:43;;;;;;;4.50;1.50;;;18.40;99.90;;;;;;5013527;28;20391;-75
2022/09/04 05:05:18;;;;;;;5.10;1.20;;;19.70;96.50;;;;;;5013879;28;20375;-77
2022/09/04 05:07:51;;;;;;;4.55;1.10;;;20.20;94.30;;;;;;5014656;28;20425;-79
2022/09/04 05:10:28;;;;;;;3.83;1.20;;;20.40;92.20;;;;;;4997278;28;20413;-82
2022/09/04 05:13:18;;;;;;;5.60;1.40;;;20.80;92.40;;;;;;5059278;28;20382;-76
2022/09/04 05:15:59;;;;;;;3.35;1.10;;;21.20;90.00;;;;;;5075884;28;20362;-79
2022/09/04 05:19:07;;;;;;;5.40;1.40;;;21.00;88.40;;;;;;5075587;28;20401;-80
2022/09/04 05:22:16;;;;;;;4.53;1.13;;;20.60;90.20;;;;;;5033548;28;20413;-79
2022/09/04 05:25:01;;;;;;;5.67;1.20;;;20.00;90.00;;;;;;4993955;28;20455;-80
2022/09/04 05:27:42;;;;;;;5.50;1.40;;;19.20;92.00;;;;;;4993893;28;20385;-80
2022/09/04 05:30:09;;;;;;;4.80;1.30;;;18.20;97.30;;;;;;4994532;28;20376;-80
2022/09/04 05:32:44;;;;;;;3.45;1.15;;;17.10;99.90;;;;;;4993843;28;20388;-80
2022/09/04 05:35:17;;;;;;;4.23;1.33;;;16.30;99.90;;;;;;4994114;28;20483;-79
2022/09/04 06:10:07;;;;;;;6.10;1.50;;;16.70;99.90;;;;;;4968164;27;5265041;-84
2022/09/04 06:12:41;;;;;;;14.20;2.60;;;17.20;99.90;;;;;;5142114;27;20382;-79
2022/09/04 06:15:31;;;;;;;7.93;1.75;;;17.00;99.90;;;;;;5139848;27;20384;-80
2022/09/04 06:18:24;;;;;;;7.43;1.80;;;16.40;99.90;;;;;;5131367;27;20485;-78
2022/09/04 06:21:14;;;;;;;8.35;1.67;;;15.90;99.90;;;;;;5145697;27;20955;-80
2022/09/04 06:23:59;;;;;;;6.80;1.73;;;15.50;99.90;;;;;;5145478;27;20376;-80
2022/09/04 06:27:03;;;;;;;9.85;2.30;;;15.30;99.90;;;;;;5130947;27;20505;-78
2022/09/04 06:29:43;;;;;;;5.85;1.60;;;15.50;99.90;;;;;;5147595;27;20407;-79
2022/09/04 06:33:02;;;;;;;9.00;1.83;;;15.70;99.90;;;;;;5145062;27;20368;-80
2022/09/04 06:35:39;;;;;;;13.90;2.45;;;16.20;99.90;;;;;;5041724;28;20472;-79
2022/09/04 06:38:42;;;;;;;7.65;1.95;;;16.30;99.90;;;;;;5055312;28;20369;-83
2022/09/04 06:41:53;;;;;;;8.18;1.70;;;16.10;99.90;;;;;;5047320;28;20393;-74
2022/09/04 06:45:01;;;;;;;24.85;2.92;;;15.80;99.90;;;;;;4978052;28;20393;-79
2022/09/04 06:47:46;;;;;;;21.35;2.85;;;15.50;99.90;;;;;;4977709;28;20392;-80
2022/09/04 06:50:49;;;;;;;7.47;1.90;;;15.30;99.90;;;;;;4984865;28;20799;-79
2022/09/04 06:53:21;;;;;;;7.68;1.70;;;15.10;99.90;;;;;;4986019;28;20392;-78
2022/09/04 06:56:16;;;;;;;7.88;1.70;;;14.90;99.90;;;;;;4990192;28;20489;-80
2022/09/04 06:58:51;;;;;;;8.35;1.90;;;14.80;99.90;;;;;;4967144;28;20449;-80
2022/09/04 07:01:30;;;;;;;11.37;2.13;;;14.70;99.90;;;;;;4984770;28;20473;-79
2022/09/04 07:04:33;;;;;;;9.80;1.90;;;14.60;99.90;;;;;;4978504;28;20397;-78
2022/09/04 07:07:38;;;;;;;18.08;3.30;;;14.50;99.90;;;;;;4983476;28;20424;-76
2022/09/04 07:10:11;;;;;;;13.07;2.30;;;14.40;99.90;;;;;;5026524;28;20906;-78
2022/09/04 07:12:56;;;;;;;11.80;2.45;;;14.20;99.90;;;;;;5033416;28;20388;-78
2022/09/04 07:15:29;;;;;;;12.20;2.38;;;14.00;99.90;;;;;;5033819;28;20395;-78
2022/09/04 07:18:12;;;;;;;8.95;2.00;;;13.80;99.90;;;;;;5075270;28;20394;-81
2022/09/04 07:21:05;;;;;;;27.67;5.03;;;13.60;99.90;;;;;;5111871;27;20384;-80
2022/09/04 07:23:58;;;;;;;7.00;1.92;;;13.50;99.90;;;;;;5101439;28;20715;-79
2022/09/04 07:26:50;;;;;;;208.73;26.17;;;13.30;99.90;;;;;;5100810;28;20725;-78
2022/09/04 07:29:28;;;;;;;14.13;2.80;;;13.20;99.90;;;;;;5105718;28;20402;-78
2022/09/04 07:32:19;;;;;;;9.55;2.00;;;13.10;99.90;;;;;;5096797;28;20372;-82
2022/09/04 07:35:10;;;;;;;10.40;2.10;;;13.00;99.90;;;;;;5107613;28;20459;-81
2022/09/04 07:37:48;;;;;;;8.10;2.00;;;13.00;99.90;;;;;;5104914;28;20402;-79
2022/09/04 07:40:38;;;;;;;9.43;2.13;;;12.90;99.90;;;;;;5110228;28;20417;-78
2022/09/04 07:43:20;;;;;;;7.75;1.98;;;12.90;99.90;;;;;;5107344;28;20417;-77
2022/09/04 07:46:07;;;;;;;7.70;1.88;;;12.90;99.90;;;;;;5101145;28;20428;-77
2022/09/04 07:48:52;;;;;;;5.50;1.73;;;12.90;99.90;;;;;;5098678;28;20424;-78
2022/09/04 07:51:31;;;;;;;7.05;1.90;;;12.90;99.90;;;;;;5107772;28;20416;-78
2022/09/04 07:54:36;;;;;;;7.53;1.67;;;12.90;99.90;;;;;;5109297;28;20858;-79
2022/09/04 07:57:03;;;;;;;11.38;2.00;;;12.80;99.90;;;;;;5112530;28;20719;-81
2022/09/04 07:59:48;;;;;;;6.70;2.30;;;12.70;99.90;;;;;;5113188;28;20465;-78
2022/09/04 08:02:42;;;;;;;8.33;2.07;;;12.60;99.90;;;;;;5099114;28;20362;-78
2022/09/04 08:05:24;;;;;;;10.10;2.05;;;12.50;99.90;;;;;;5098304;28;20989;-79
2022/09/04 08:08:12;;;;;;;6.78;1.88;;;12.40;99.90;;;;;;5112853;27;20379;-78
2022/09/04 08:10:45;;;;;;;11.77;2.90;;;12.40;99.90;;;;;;5133731;27;20373;-76
2022/09/04 08:13:18;;;;;;;6.03;1.90;;;12.40;99.90;;;;;;5127011;27;20485;-75
2022/09/04 08:16:05;;;;;;;5.72;1.73;;;12.40;99.90;;;;;;5125888;27;20394;-76
2022/09/04 08:18:52;;;;;;;4.57;1.50;;;12.40;99.90;;;;;;5115465;27;20928;-75
2022/09/04 08:21:40;;;;;;;7.80;1.80;;;12.40;99.90;;;;;;5121929;27;20364;-76
2022/09/04 08:24:28;;;;;;;6.90;1.70;;;12.30;99.90;;;;;;5133082;27;20400;-76
2022/09/04 08:27:04;;;;;;;7.87;3.13;;;12.30;99.90;;;;;;5133093;27;20360;-76
2022/09/04 08:29:40;;;;;;;10.75;4.43;;;12.20;99.90;;;;;;5119426;27;20404;-77
2022/09/04 08:32:33;;;;;;;8.27;2.90;;;12.10;99.90;;;;;;5126430;27;20404;-76
2022/09/04 08:35:22;;;;;;;6.75;2.10;;;11.90;99.90;;;;;;5094671;28;20398;-87
2022/09/04 08:38:10;;;;;;;8.38;2.10;;;11.80;99.90;;;;;;5113696;27;20385;-81
2022/09/04 08:40:56;;;;;;;7.72;1.83;;;11.70;99.90;;;;;;5132407;27;20412;-75
2022/09/04 08:43:38;;;;;;;6.25;1.60;;;11.60;99.90;;;;;;5122352;27;20527;-76
2022/09/04 08:46:47;;;;;;;6.65;1.70;;;11.60;99.90;;;;;;5118346;27;20370;-75
2022/09/04 08:49:52;;;;;;;5.53;1.45;;;11.50;99.90;;;;;;5123103;27;20409;-78
2022/09/04 08:52:56;;;;;;;6.72;2.15;;;11.50;99.90;;;;;;5120554;27;20917;-76
2022/09/04 08:55:47;;;;;;;6.18;1.58;;;11.40;99.90;;;;;;5123358;27;20376;-77
2022/09/04 08:59:04;;;;;;;7.75;2.50;;;11.40;99.90;;;;;;5132271;27;20361;-75
2022/09/04 09:01:56;;;;;;;7.65;3.45;;;11.40;99.90;;;;;;5062045;28;20382;-75
2022/09/04 09:05:11;;;;;;;8.93;3.38;;;11.50;99.90;;;;;;5048933;28;20388;-75
2022/09/04 09:07:49;;;;;;;10.95;4.93;;;11.60;99.90;;;;;;5048459;28;20380;-75
2022/09/04 09:10:37;;;;;;;8.80;3.90;;;11.70;99.90;;;;;;5055963;28;20479;-76
2022/09/04 09:13:19;;;;;;;8.20;3.70;;;11.90;99.90;;;;;;5049130;28;20394;-75
2022/09/04 09:16:01;;;;;;;11.18;5.43;;;12.00;99.90;;;;;;5048749;28;20961;-75
2022/09/04 09:18:50;;;;;;;10.02;3.80;;;12.10;99.90;;;;;;5045624;28;20400;-74
2022/09/04 09:21:36;;;;;;;10.52;3.55;;;12.20;99.90;;;;;;5046493;28;20393;-75
2022/09/04 09:24:06;;;;;;;6.47;3.00;;;12.20;99.90;;;;;;5040497;28;20839;-75
2022/09/04 09:27:16;;;;;;;8.32;3.60;;;12.30;99.90;;;;;;5046365;28;20475;-75
2022/09/04 09:30:07;;;;;;;9.82;3.55;;;12.30;99.90;;;;;;5028121;28;20424;-75
2022/09/04 09:33:06;;;;;;;5.65;2.80;;;12.30;99.90;;;;;;5029923;28;20397;-75
2022/09/04 09:36:03;;;;;;;9.40;2.85;;;12.20;99.90;;;;;;4972409;28;20471;-74
2022/09/04 09:38:35;;;;;;;8.38;2.92;;;12.30;99.90;;;;;;5014454;28;20400;-79
2022/09/04 09:41:59;;;;;;;6.57;2.50;;;12.20;99.90;;;;;;5030284;28;20385;-84
2022/09/04 09:44:32;;;;;;;8.13;2.80;;;12.20;99.90;;;;;;4944612;28;20962;-75
2022/09/04 09:47:34;;;;;;;7.82;2.40;;;12.20;99.90;;;;;;4951580;28;20967;-75
2022/09/04 09:50:11;;;;;;;5.50;2.03;;;12.10;99.90;;;;;;4913116;29;20550;-78
2022/09/04 09:52:47;;;;;;;7.30;1.80;;;12.10;99.90;;;;;;4912655;29;20887;-84
2022/09/04 09:55:50;;;;;;;6.72;1.92;;;12.10;99.90;;;;;;4911890;29;20839;-85
2022/09/04 09:58:30;;;;;;;5.75;2.30;;;12.20;99.90;;;;;;4907972;29;20399;-91
2022/09/04 10:01:13;;;;;;;7.35;2.40;;;12.00;99.90;;;;;;4908841;29;20403;-83
2022/09/04 10:03:58;;;;;;;15.68;3.13;;;11.90;99.90;;;;;;4915637;29;20409;-75
2022/09/04 10:07:09;;;;;;;16.40;4.90;;;11.80;99.90;;;;;;4914175;29;21112;-76
2022/09/04 10:10:09;;;;;;;19.95;7.03;;;11.60;99.90;;;;;;4914362;29;20420;-81
2022/09/04 10:12:57;;;;;;;15.63;8.23;;;11.60;99.90;;;;;;4949893;29;20392;-77
2022/09/04 10:15:44;;;;;;;16.65;8.82;;;11.50;99.90;;;;;;4999397;28;20531;-74
2022/09/04 10:18:14;;;;;;;16.35;7.32;;;11.50;99.90;;;;;;5031382;28;20381;-73
2022/09/04 10:21:10;;;;;;;14.27;5.43;;;11.40;99.90;;;;;;5027879;28;20391;-75
2022/09/04 10:24:12;;;;;;;12.85;5.68;;;11.30;99.90;;;;;;5001461;28;20514;-75
2022/09/04 10:27:12;;;;;;;14.63;6.75;;;11.20;99.90;;;;;;5052587;28;20880;-75
2022/09/04 10:29:54;;;;;;;10.48;4.82;;;11.10;99.90;;;;;;5121821;28;20794;-75
2022/09/04 10:32:53;;;;;;;8.73;3.90;;;11.10;99.90;;;;;;5122676;28;20385;-74
2022/09/04 10:35:39;;;;;;;7.40;3.40;;;11.10;99.90;;;;;;5126085;28;20388;-75
2022/09/04 10:38:17;;;;;;;7.72;2.70;;;11.10;99.90;;;;;;5120748;28;20373;-74
2022/09/04 10:41:21;;;;;;;7.30;2.72;;;11.20;99.90;;;;;;5123573;28;20370;-75
2022/09/04 10:44:27;;;;;;;6.97;2.60;;;11.30;99.90;;;;;;5125785;28;20391;-75
2022/09/04 10:47:09;;;;;;;7.35;2.92;;;11.30;99.90;;;;;;5126813;28;20404;-74
2022/09/04 10:50:01;;;;;;;6.43;2.20;;;11.30;99.90;;;;;;5117209;28;20452;-75
2022/09/04 10:52:52;;;;;;;6.37;2.13;;;11.30;99.90;;;;;;5118720;28;20874;-74
2022/09/04 10:55:42;;;;;;;6.23;2.20;;;11.30;99.90;;;;;;5127885;27;20383;-74
2022/09/04 10:58:21;;;;;;;4.90;1.88;;;11.20;99.90;;;;;;5116983;27;20386;-75
2022/09/04 11:01:02;;;;;;;5.28;1.90;;;11.10;99.90;;;;;;5122944;27;20369;-74
2022/09/04 11:03:47;;;;;;;8.27;2.03;;;11.10;99.90;;;;;;5128624;27;20385;-74
2022/09/04 11:06:29;;;;;;;6.65;1.90;;;11.10;99.90;;;;;;5127992;27;20810;-74
2022/09/04 11:09:13;;;;;;;8.32;3.05;;;11.00;99.90;;;;;;5127148;27;20418;-74
2022/09/04 11:12:11;;;;;;;4.63;1.70;;;11.00;99.90;;;;;;5133644;27;20390;-75
2022/09/04 11:14:51;;;;;;;7.28;2.00;;;10.90;99.90;;;;;;5123917;27;20871;-74
2022/09/04 11:17:22;;;;;;;7.47;1.95;;;10.90;99.90;;;;;;5129751;27;20381;-75
2022/09/04 11:20:25;;;;;;;5.78;1.80;;;10.90;99.90;;;;;;5125283;27;20369;-75
2022/09/04 11:23:13;;;;;;;5.13;1.85;;;10.90;99.90;;;;;;5122123;27;20373;-75
2022/09/04 11:26:25;;;;;;;3.92;1.63;;;11.00;99.90;;;;;;5131335;27;20370;-75
2022/09/04 11:29:39;;;;;;;6.40;1.70;;;11.10;99.90;;;;;;5129560;27;20441;-75
2022/09/04 11:32:30;;;;;;;5.47;1.60;;;11.10;99.90;;;;;;5050720;28;20447;-75
2022/09/04 11:35:47;;;;;;;5.03;1.60;;;11.20;99.90;;;;;;5050928;28;20413;-75
2022/09/04 11:38:52;;;;;;;4.27;1.60;;;11.20;99.90;;;;;;5030389;28;21317;-76
2022/09/04 11:41:19;;;;;;;4.55;1.70;;;11.20;99.90;;;;;;5009227;28;20718;-76
2022/09/04 11:44:10;;;;;;;6.65;1.70;;;11.20;99.90;;;;;;5030839;28;20386;-77
2022/09/04 11:47:19;;;;;;;4.88;1.52;;;11.20;99.90;;;;;;5030401;28;20718;-76
2022/09/04 11:50:17;;;;;;;7.40;2.85;;;11.20;99.90;;;;;;4952154;29;20774;-76
2022/09/04 11:53:10;;;;;;;7.00;2.58;;;11.10;99.90;;;;;;4952542;29;20392;-76
2022/09/04 11:56:13;;;;;;;5.90;2.10;;;11.00;99.90;;;;;;4952461;29;20958;-76
2022/09/04 11:59:06;;;;;;;5.57;1.80;;;11.00;99.90;;;;;;4956768;28;20473;-76
2022/09/04 12:02:03;;;;;;;5.32;1.83;;;10.90;99.90;;;;;;4943997;28;20396;-76
2022/09/04 12:04:48;;;;;;;6.65;2.40;;;10.90;99.90;;;;;;5039386;28;20417;-76
2022/09/04 12:07:45;;;;;;;5.03;1.90;;;10.80;99.90;;;;;;5030462;28;20390;-76
2022/09/04 12:10:37;;;;;;;6.25;1.88;;;10.70;99.90;;;;;;5029109;28;20453;-76
2022/09/04 12:13:04;;;;;;;4.88;2.00;;;10.50;99.90;;;;;;5026908;28;20383;-76
2022/09/04 12:16:18;;;;;;;6.45;2.10;;;10.40;99.90;;;;;;5027600;28;20734;-76
2022/09/04 12:19:07;;;;;;;4.93;1.70;;;10.40;99.90;;;;;;4990347;28;20469;-75
2022/09/04 12:22:02;;;;;;;4.05;1.67;;;10.40;99.90;;;;;;4990252;28;20388;-75
2022/09/04 12:24:43;;;;;;;7.22;2.15;;;10.30;99.90;;;;;;4971119;28;20938;-75
2022/09/04 12:27:21;;;;;;;5.70;2.13;;;10.30;99.90;;;;;;5035926;28;20386;-75
2022/09/04 12:30:32;;;;;;;7.63;2.65;;;10.40;99.90;;;;;;5049369;28;20929;-75
2022/09/04 12:33:17;;;;;;;7.55;3.13;;;10.60;99.90;;;;;;5010065;28;20422;-75
2022/09/04 12:35:44;;;;;;;5.13;2.30;;;10.70;99.90;;;;;;4995914;28;20391;-76
2022/09/04 12:38:26;;;;;;;5.80;1.92;;;10.70;99.90;;;;;;5009405;28;20387;-76
2022/09/04 12:41:19;;;;;;;7.72;1.80;;;10.80;99.90;;;;;;5007563;28;20398;-76
2022/09/04 12:44:22;;;;;;;5.32;1.63;;;10.80;99.90;;;;;;5001880;28;20379;-75
2022/09/04 12:47:17;;;;;;;5.40;1.80;;;10.80;99.90;;;;;;4979026;28;20447;-76
2022/09/04 12:50:04;;;;;;;4.65;1.85;;;10.90;99.90;;;;;;5023123;28;20658;-76
2022/09/04 12:53:16;;;;;;;7.07;1.80;;;10.90;99.90;;;;;;5039692;28;21114;-76
2022/09/04 12:55:59;;;;;;;6.93;1.83;;;10.90;99.90;;;;;;5029405;28;20393;-77
2022/09/04 12:58:42;;;;;;;6.50;1.67;;;10.90;99.90;;;;;;5045498;28;20389;-75
2022/09/04 13:01:15;;;;;;;5.50;1.52;;;10.90;99.90;;;;;;5046951;28;20387;-76
2022/09/04 13:03:54;;;;;;;4.78;1.58;;;10.90;99.90;;;;;;5051484;28;20765;-76
2022/09/04 13:06:50;;;;;;;4.25;1.40;;;10.90;99.90;;;;;;5051690;28;20386;-76
2022/09/04 13:09:43;;;;;;;4.07;1.30;;;10.80;99.90;;;;;;5047238;28;20437;-76
2022/09/04 13:12:23;;;;;;;5.95;1.50;;;10.70;99.90;;;;;;5032552;28;20437;-77
2022/09/04 13:15:09;;;;;;;6.23;1.40;;;10.60;99.90;;;;;;5032548;28;20373;-76
2022/09/04 13:18:05;;;;;;;4.55;1.30;;;10.50;99.90;;;;;;5035381;28;20378;-75
2022/09/04 13:20:54;;;;;;;6.88;1.40;;;10.40;99.90;;;;;;5035268;28;20382;-76
2022/09/04 13:23:38;;;;;;;5.78;1.50;;;10.30;99.90;;;;;;5051042;28;20489;-75
2022/09/04 13:26:08;;;;;;;5.15;1.42;;;10.30;99.90;;;;;;5071324;28;20457;-76
2022/09/04 13:28:44;;;;;;;3.20;1.30;;;10.20;99.90;;;;;;5071824;28;20492;-75
2022/09/04 13:31:42;;;;;;;4.05;1.50;;;10.20;99.90;;;;;;5071601;28;20382;-75
2022/09/04 13:34:36;;;;;;;4.03;1.27;;;10.20;99.90;;;;;;5071575;28;20362;-75
2022/09/04 13:37:24;;;;;;;4.78;1.70;;;10.10;99.90;;;;;;5070887;28;20489;-75
2022/09/04 13:40:00;;;;;;;4.82;1.70;;;10.10;99.90;;;;;;5070905;28;20441;-75
2022/09/04 13:42:58;;;;;;;6.25;1.60;;;10.10;99.90;;;;;;5073970;28;20381;-75
2022/09/04 13:45:29;;;;;;;6.70;1.50;;;10.00;99.90;;;;;;5086366;28;20390;-76
2022/09/04 13:48:31;;;;;;;4.80;1.35;;;10.10;99.90;;;;;;5119914;28;20502;-75
2022/09/04 13:51:05;;;;;;;4.93;1.57;;;10.10;99.90;;;;;;5131825;28;20400;-75
2022/09/04 13:53:47;;;;;;;5.47;1.50;;;10.30;99.90;;;;;;5134310;28;20367;-76
2022/09/04 13:56:22;;;;;;;4.53;1.40;;;10.40;99.90;;;;;;5136216;28;20374;-75
2022/09/04 13:58:56;;;;;;;4.68;1.30;;;10.40;99.90;;;;;;5136358;28;20359;-74
2022/09/04 14:01:26;;;;;;;4.68;1.38;;;10.50;99.90;;;;;;5128479;28;20454;-75
2022/09/04 14:03:58;;;;;;;4.63;1.27;;;10.60;99.90;;;;;;5115139;28;20445;-74
2022/09/04 14:06:29;;;;;;;4.27;1.10;;;10.60;99.90;;;;;;5113733;28;20865;-75
2022/09/04 14:09:01;;;;;;;4.47;1.27;;;10.70;99.90;;;;;;5116611;28;20418;-75
2022/09/04 14:11:40;;;;;;;4.30;1.15;;;10.70;99.90;;;;;;5114090;28;20913;-75
2022/09/04 14:14:36;;;;;;;5.82;1.42;;;10.70;99.90;;;;;;5113454;28;20879;-75
2022/09/04 14:17:05;;;;;;;4.53;1.30;;;10.80;99.90;;;;;;5112942;28;20379;-75
2022/09/04 14:20:13;;;;;;;3.40;1.10;;;10.90;99.90;;;;;;5112470;28;20362;-76
2022/09/04 14:22:50;;;;;;;4.13;1.27;;;10.90;99.90;;;;;;5030519;28;20466;-75
2022/09/04 14:25:32;;;;;;;5.25;1.20;;;11.00;99.90;;;;;;5030906;28;20412;-75
2022/09/04 14:28:33;;;;;;;3.45;1.10;;;11.00;99.90;;;;;;5030567;28;20417;-75
2022/09/04 14:31:22;;;;;;;5.65;1.20;;;11.00;99.90;;;;;;5032537;28;20389;-75
2022/09/04 14:33:52;;;;;;;5.78;1.10;;;11.00;99.90;;;;;;5034167;28;20476;-75
2022/09/04 14:36:34;;;;;;;3.00;1.10;;;11.00;99.90;;;;;;5033924;28;20865;-75
2022/09/04 14:39:23;;;;;;;3.70;1.13;;;11.00;99.90;;;;;;5033791;28;20753;-75
2022/09/04 14:42:27;;;;;;;3.53;1.00;;;11.00;99.90;;;;;;5034104;28;20386;-75
2022/09/04 14:45:15;;;;;;;3.92;1.10;;;10.90;99.90;;;;;;5034414;28;20423;-75
2022/09/04 14:47:54;;;;;;;3.58;0.88;;;11.00;99.90;;;;;;5033633;28;20392;-75
2022/09/04 14:50:28;;;;;;;4.07;1.08;;;10.90;99.90;;;;;;5033683;28;20397;-75
2022/09/04 14:53:05;;;;;;;5.75;1.20;;;10.90;99.90;;;;;;5033808;28;20388;-76
2022/09/04 14:55:40;;;;;;;4.07;1.23;;;10.80;99.90;;;;;;5040106;28;20381;-75
2022/09/04 14:58:41;;;;;;;4.18;1.10;;;10.70;99.90;;;;;;5116292;28;20362;-75
2022/09/04 15:01:29;;;;;;;5.38;1.15;;;10.70;99.90;;;;;;5116276;28;20370;-75
2022/09/04 15:04:30;;;;;;;5.07;1.20;;;10.60;99.90;;;;;;5116449;28;20358;-76